Metar/Speci

METEOROLOGICAL AERODROME REPORT
STASIUN METEOROLOGI HANG NADIM BATAM
ADDS - METARS form results

Aviation Digital Data Service (ADDS)

Output produced by METARs form (1616 UTC 24 November 2017)
found at http://aviationweather.gov/adds/metars/
 
METAR text: WIDD 241600Z 00000KT 9999 FEW014 26/24 Q1011
Conditions at: WIDD (HANG NADIM , ID) observed 1600 UTC 24 November 2017
Temperature: 26.0°C (79°F)
Dewpoint: 24.0°C (75°F) [RH = 89%]
Pressure (altimeter): 29.85 inches Hg (1011.0 mb)
Winds: calm
Visibility: 6 or more miles (10+ km)
Ceiling: at least 12,000 feet AGL
Clouds: few clouds at 1400 feet AGL
Weather: no significant weather observed at this time

Informasi METAR/SPECI dapat diakses juga di http://aviation.bmkg.go.id